Athens Ben Epps Airport
KAHN : now visible

Airfield :











YOU CAN JOIN US ON...

 
LOGIN :

Register | Disclaimer

   EN    FR    IT 

 









Legend :    VFR   Marginal VFR   IFR   Intensive IFR   Very Intensive IFR
Visi :
Ceiling :
>= 8 km
>= 3000ft
5 to 8 km
1000 to 3000 ft
1500m to 5 km
500 to 1000 ft
800 to 1500m
200 to 500 ft
< 800m
< 200 ft
Symbols :   Thunderstorms  Fog  Heavy snow  Heavy precipitations  Wind > 20 kt






- Airport Elevation : 808 ft
- IATA code : AHN


KAHN - Athens Ben Epps

CURRENT METAR :
  • 101251Z 32009G19KT 10SM CLR 13/M05 A2990 RMK AO2 SLP122 T01281050

EXPIRED METARs :
  • 101151Z 31009G18KT 10SM CLR 13/M05 A2987 RMK AO2 PK WND 33027/1103 SLP110 T01281050 10172 20128 53040
  • 101051Z AUTO 31013G19KT 10SM CLR 14/M03 A2982 RMK AO2 SLP093 T01391028

TAF KAHN
Valid from the 10 at 12:00 until the 11 at 12:00 UTC


101125Z 1012/1112 32014G25KT P6SM SCT100 BKN250
FM102000 34012G18KT P6SM SCT250
FM110100 30006KT P6SM SKC
FM110900 04003KT P6SM SKC



MET'MAP, your aeronautical weather chart ! - Copyright ORBIFLY December 2007 - Disclaimer

ORBIFLY MET'MAP TEAM :

Programming & Development : Alexandra Zaïnal
Concept & original design : Baudouin d'Aumeries
Assistance for programming : Marc-Olivier Méhu
Technical & hardware support : Manuel Goepfert

Contact : metmap@orbifly.com




SOURCES & CREDITS :

   NOAA       Earth
Advisory